createdAt,value
2022-09-28T00:01:42.647Z,73.76
2022-09-28T00:04:18.306Z,73.74
2022-09-28T00:06:49.356Z,73.68
2022-09-28T00:09:21.206Z,73.77
2022-09-28T00:11:51.643Z,73.90
2022-09-28T00:14:25.098Z,73.82
2022-09-28T00:16:56.581Z,73.65
2022-09-28T00:19:28.214Z,73.77
2022-09-28T00:22:05.226Z,73.79
2022-09-28T00:24:38.534Z,73.89
2022-09-28T00:27:10.986Z,73.80
2022-09-28T00:52:30.555Z,73.88
2022-09-28T01:18:12.714Z,74.19
2022-09-28T02:05:16.706Z,74.57
2022-09-28T02:09:36.369Z,74.58
2022-09-28T02:48:03.670Z,75.05
2022-09-28T02:50:55.967Z,75.24
2022-09-28T02:53:51.496Z,75.21
2022-09-28T02:56:47.358Z,75.04
2022-09-28T02:59:51.681Z,75.26
2022-09-28T03:02:29.259Z,75.25
2022-09-28T03:05:24.859Z,75.23
2022-09-28T03:08:57.360Z,75.06
2022-09-28T03:11:38.373Z,75.14
2022-09-28T03:14:11.472Z,75.24
2022-09-28T03:22:00.700Z,75.15
2022-09-28T03:57:57.383Z,75.58
2022-09-28T04:01:45.903Z,75.52
2022-09-28T04:04:43.145Z,75.57
2022-09-28T04:51:18.292Z,75.67
2022-09-28T04:53:48.897Z,75.71
2022-09-28T04:56:39.835Z,75.74
2022-09-28T04:59:29.817Z,75.85
2022-09-28T05:02:22.379Z,75.73
2022-09-28T05:05:32.891Z,75.92
2022-09-28T05:08:34.967Z,75.95
2022-09-28T05:11:09.038Z,75.95
2022-09-28T05:14:30.662Z,76.05
2022-09-28T05:17:42.343Z,75.90
2022-09-28T05:20:23.359Z,76.04
2022-09-28T05:22:55.505Z,76.00
2022-09-28T05:25:26.551Z,76.05
2022-09-28T05:28:05.929Z,75.84
2022-09-28T05:31:06.304Z,75.98
2022-09-28T05:34:01.725Z,76.03
2022-09-28T06:08:47.324Z,76.50
2022-09-28T06:11:35.132Z,76.43
2022-09-28T06:14:14.518Z,76.46
2022-09-28T06:17:13.259Z,76.32
2022-09-28T06:19:44.642Z,76.40
2022-09-28T06:22:27.180Z,76.52
2022-09-28T06:25:08.677Z,76.37
2022-09-28T06:27:39.723Z,76.35
2022-09-28T06:30:12.077Z,76.42
2022-09-28T06:32:44.901Z,76.47
2022-09-28T06:35:17.122Z,76.53
2022-09-28T06:37:49.421Z,76.43
2022-09-28T06:40:22.564Z,76.51
2022-09-28T06:43:34.477Z,76.41
2022-09-28T06:46:22.553Z,76.27
2022-09-28T06:49:20.913Z,76.27
2022-09-28T06:52:08.507Z,76.36
2022-09-28T06:54:55.886Z,76.43
2022-09-28T06:57:31.536Z,76.22
2022-09-28T07:00:00.309Z,76.36
2022-09-28T07:02:29.630Z,76.31
2022-09-28T07:05:27.751Z,76.32
2022-09-28T07:08:07.151Z,76.52
2022-09-28T07:11:07.342Z,76.36
2022-09-28T07:13:59.609Z,76.13
2022-09-28T07:21:04.561Z,75.09
2022-09-28T07:23:40.332Z,75.02
2022-09-28T07:26:37.873Z,74.79
2022-09-28T07:29:14.730Z,74.62
2022-09-28T07:32:01.282Z,74.86
2022-09-28T07:34:49.498Z,74.55
2022-09-28T07:37:39.785Z,74.36
2022-09-28T07:40:28.868Z,74.46
2022-09-28T07:43:05.489Z,74.28
2022-09-28T07:45:38.992Z,74.10
2022-09-28T07:51:12.876Z,72.88
2022-09-28T07:53:44.668Z,72.81
2022-09-28T07:56:31.844Z,73.22
2022-09-28T07:59:06.533Z,73.27
2022-09-28T08:01:41.469Z,73.55
2022-09-28T08:04:13.375Z,73.73
2022-09-28T08:06:45.275Z,73.41
2022-09-28T08:09:18.391Z,73.29
2022-09-28T08:12:06.503Z,73.09
2022-09-28T08:14:42.659Z,73.00
2022-09-28T08:18:15.320Z,73.20
2022-09-28T08:21:05.607Z,72.77
2022-09-28T08:23:36.102Z,71.59
2022-09-28T08:26:06.951Z,69.49
2022-09-28T08:28:37.089Z,68.95
2022-09-28T08:31:26.212Z,70.22
2022-09-28T08:34:23.582Z,69.58
2022-09-28T08:37:32.211Z,70.56
2022-09-28T08:40:45.230Z,69.78
2022-09-28T08:44:05.600Z,68.86
2022-09-28T08:47:04.617Z,67.90
2022-09-28T08:49:50.836Z,68.67
2022-09-28T08:52:41.388Z,68.41
2022-09-28T08:55:36.687Z,68.71
2022-09-28T08:58:23.510Z,68.26
2022-09-28T09:00:54.879Z,66.11
2022-09-28T09:03:34.618Z,65.32
2022-09-28T09:06:48.594Z,63.93
2022-09-28T09:13:16.660Z,63.00
2022-09-28T09:16:28.148Z,61.70
2022-09-28T09:19:43.786Z,62.91
2022-09-28T09:22:44.201Z,65.16
2022-09-28T09:25:38.539Z,66.15
2022-09-28T09:28:21.349Z,67.55
2022-09-28T09:31:13.191Z,67.90
2022-09-28T09:34:08.981Z,67.90
2022-09-28T09:37:26.888Z,67.52
2022-09-28T09:40:46.724Z,67.32
2022-09-28T09:43:48.162Z,68.39
2022-09-28T09:46:42.099Z,68.20
2022-09-28T09:49:43.867Z,67.24
2022-09-28T09:52:28.594Z,65.19
2022-09-28T09:55:01.215Z,65.10
2022-09-28T09:57:56.435Z,65.13
2022-09-28T10:00:51.221Z,64.77
2022-09-28T10:03:30.647Z,64.90
2022-09-28T10:06:28.055Z,65.98
2022-09-28T10:09:15.324Z,66.15
2022-09-28T10:11:49.251Z,64.96
2022-09-28T10:14:27.266Z,63.88
2022-09-28T10:18:23.956Z,63.99
2022-09-28T10:21:21.099Z,63.58
2022-09-28T10:24:05.893Z,61.63
2022-09-28T10:26:41.690Z,61.82
2022-09-28T10:29:17.461Z,62.82
2022-09-28T10:31:49.330Z,63.29
2022-09-28T10:34:32.802Z,63.28
2022-09-28T10:37:13.339Z,63.56
2022-09-28T10:40:04.617Z,63.82
2022-09-28T10:42:36.687Z,64.24
2022-09-28T10:45:23.693Z,63.04
2022-09-28T10:47:53.409Z,61.25
2022-09-28T10:50:28.467Z,60.87
2022-09-28T10:53:28.055Z,59.87
2022-09-28T10:56:09.127Z,59.66
2022-09-28T10:58:42.277Z,59.56
2022-09-28T11:01:23.377Z,58.70
2022-09-28T11:04:04.747Z,58.85
2022-09-28T11:06:42.756Z,59.02
2022-09-28T11:09:42.480Z,58.61
2022-09-28T11:12:17.777Z,58.47
2022-09-28T11:14:53.247Z,57.87
2022-09-28T11:17:29.170Z,58.21
2022-09-28T11:20:26.093Z,57.81
2022-09-28T11:23:22.270Z,58.17
2022-09-28T11:26:17.697Z,57.92
2022-09-28T11:28:53.629Z,59.23
2022-09-28T11:31:32.506Z,58.18
2022-09-28T11:34:17.230Z,59.25
2022-09-28T11:37:34.019Z,59.43
2022-09-28T11:40:25.884Z,58.23
2022-09-28T11:43:19.778Z,58.16
2022-09-28T11:46:08.546Z,57.85
2022-09-28T11:48:50.278Z,57.71
2022-09-28T11:51:26.297Z,57.56
2022-09-28T11:54:01.005Z,57.12
2022-09-28T11:56:39.080Z,56.79
2022-09-28T11:59:17.107Z,56.81
2022-09-28T12:01:57.716Z,56.30
2022-09-28T12:04:42.538Z,56.81
2022-09-28T12:07:27.989Z,56.65
2022-09-28T12:10:20.768Z,56.27
2022-09-28T12:13:01.448Z,57.00
2022-09-28T12:16:23.336Z,56.53
2022-09-28T12:19:15.516Z,56.64
2022-09-28T12:21:54.596Z,57.19
2022-09-28T12:24:46.413Z,57.04
2022-09-28T12:27:42.301Z,56.97
2022-09-28T12:30:20.386Z,56.47
2022-09-28T12:33:12.806Z,56.26
2022-09-28T12:36:09.191Z,56.64
2022-09-28T12:39:08.453Z,56.70
2022-09-28T12:42:23.905Z,56.53
2022-09-28T12:45:09.239Z,56.49
2022-09-28T12:47:38.999Z,56.56
2022-09-28T12:50:38.691Z,56.26
2022-09-28T12:53:55.932Z,56.34
2022-09-28T12:57:00.093Z,55.93
2022-09-28T13:00:07.244Z,55.37
2022-09-28T13:02:57.140Z,55.73
2022-09-28T13:05:45.900Z,55.81
2022-09-28T13:09:10.735Z,55.48
2022-09-28T13:12:03.882Z,55.39
2022-09-28T13:15:09.219Z,55.98
2022-09-28T13:22:10.032Z,55.69
2022-09-28T13:24:44.897Z,55.85
2022-09-28T13:27:30.366Z,55.75
2022-09-28T13:30:06.126Z,55.14
2022-09-28T13:33:05.399Z,54.93
2022-09-28T13:35:38.483Z,55.10
2022-09-28T13:38:47.468Z,55.06
2022-09-28T13:41:32.480Z,55.06
2022-09-28T13:44:16.334Z,54.78
2022-09-28T13:46:54.632Z,54.53
2022-09-28T13:50:20.395Z,54.70
2022-09-28T13:53:12.545Z,54.66
2022-09-28T13:56:35.537Z,54.29
2022-09-28T13:59:20.449Z,54.02
2022-09-28T14:02:24.342Z,53.92
2022-09-28T14:05:38.047Z,53.92
2022-09-28T14:14:54.143Z,53.64
2022-09-28T14:17:55.987Z,53.47
2022-09-28T14:20:26.703Z,53.13
2022-09-28T14:23:37.443Z,53.20
2022-09-28T14:26:30.925Z,53.24
2022-09-28T14:29:33.683Z,53.15
2022-09-28T14:32:23.717Z,53.42
2022-09-28T14:35:01.623Z,53.68
2022-09-28T14:37:55.863Z,53.55
2022-09-28T14:41:13.482Z,53.71
2022-09-28T14:44:14.849Z,53.84
2022-09-28T14:46:47.797Z,53.81
2022-09-28T14:49:41.256Z,53.95
2022-09-28T15:02:33.579Z,53.96
2022-09-28T15:05:14.052Z,53.86
2022-09-28T15:07:48.482Z,53.72
2022-09-28T15:10:46.942Z,53.81
2022-09-28T15:13:28.121Z,53.89
2022-09-28T15:16:06.695Z,53.97
2022-09-28T15:18:44.287Z,54.03
2022-09-28T15:21:14.862Z,54.29
2022-09-28T15:23:47.270Z,54.27
2022-09-28T15:26:27.893Z,54.30
2022-09-28T15:28:58.421Z,54.35
2022-09-28T15:31:31.750Z,54.38
2022-09-28T15:34:20.678Z,54.63
2022-09-28T15:36:51.546Z,54.45
2022-09-28T15:39:34.534Z,54.83
2022-09-28T15:42:07.327Z,54.96
2022-09-28T15:44:38.713Z,54.90
2022-09-28T15:47:28.506Z,55.08
2022-09-28T15:50:02.348Z,55.10
2022-09-28T15:52:46.565Z,55.38
2022-09-28T15:55:48.256Z,55.39
2022-09-28T15:58:22.161Z,55.41
2022-09-28T16:01:12.641Z,55.48
2022-09-28T16:03:45.962Z,55.79
2022-09-28T16:06:18.045Z,55.64
2022-09-28T16:08:50.267Z,55.89
2022-09-28T16:11:28.357Z,55.86
2022-09-28T16:14:16.321Z,56.15
2022-09-28T16:16:53.650Z,56.20
2022-09-28T16:19:32.666Z,56.22
2022-09-28T16:22:06.922Z,56.33
2022-09-28T16:24:42.133Z,56.44
2022-09-28T16:27:52.407Z,56.56
2022-09-28T16:30:30.427Z,56.65
2022-09-28T16:33:06.866Z,56.78
2022-09-28T16:35:42.283Z,56.84
2022-09-28T16:41:11.367Z,56.98
2022-09-28T16:43:45.551Z,57.20
2022-09-28T16:46:20.798Z,57.31
2022-09-28T16:49:17.065Z,57.28
2022-09-28T16:51:51.161Z,57.50
2022-09-28T16:54:43.491Z,57.60
2022-09-28T16:57:15.404Z,57.99
2022-09-28T16:59:48.341Z,57.95
2022-09-28T17:05:18.247Z,58.09
2022-09-28T17:08:05.025Z,58.32
2022-09-28T17:11:09.731Z,58.50
2022-09-28T17:13:36.610Z,58.39
2022-09-28T17:16:12.997Z,58.34
2022-09-28T17:18:43.869Z,58.51
2022-09-28T17:21:20.072Z,58.56
2022-09-28T17:23:51.036Z,58.80
2022-09-28T17:26:30.107Z,58.79
2022-09-28T17:29:00.187Z,58.73
2022-09-28T17:31:30.140Z,58.73
2022-09-28T17:34:00.296Z,58.64
2022-09-28T17:36:30.911Z,58.60
2022-09-28T17:39:05.686Z,58.69
2022-09-28T17:41:37.732Z,59.10
2022-09-28T17:44:09.579Z,59.42
2022-09-28T17:46:46.350Z,59.59
2022-09-28T17:49:16.409Z,59.76
2022-09-28T17:51:46.474Z,59.84
2022-09-28T17:54:20.318Z,60.15
2022-09-28T17:56:49.878Z,60.27
2022-09-28T17:59:19.612Z,60.27
2022-09-28T18:01:49.729Z,60.39
2022-09-28T18:04:47.145Z,60.68
2022-09-28T18:07:10.572Z,60.82
2022-09-28T18:09:39.948Z,60.79
2022-09-28T18:12:10.791Z,61.14
2022-09-28T18:14:41.829Z,61.54
2022-09-28T18:17:15.768Z,61.42
2022-09-28T18:19:46.261Z,61.07
2022-09-28T18:22:17.390Z,60.80
2022-09-28T18:24:47.736Z,61.07
2022-09-28T18:27:21.919Z,60.99
2022-09-28T18:29:51.355Z,61.04
2022-09-28T18:32:21.047Z,61.36
2022-09-28T18:34:51.386Z,61.55
2022-09-28T18:37:20.879Z,61.57
2022-09-28T18:39:52.808Z,61.83
2022-09-28T18:42:24.517Z,62.15
2022-09-28T18:44:54.914Z,62.22
2022-09-28T18:47:25.987Z,62.36
2022-09-28T18:49:56.094Z,62.58
2022-09-28T18:52:27.356Z,62.53
2022-09-28T18:54:57.249Z,62.44
2022-09-28T18:57:30.660Z,62.24
2022-09-28T19:00:02.840Z,62.31
2022-09-28T19:02:35.042Z,62.41
2022-09-28T19:05:06.397Z,62.40
2022-09-28T19:07:36.820Z,62.85
2022-09-28T19:10:10.564Z,62.93
2022-09-28T19:12:39.299Z,63.12
2022-09-28T19:15:10.834Z,63.18
2022-09-28T19:17:40.053Z,63.08
2022-09-28T19:20:12.229Z,63.01
2022-09-28T19:22:42.357Z,63.14
2022-09-28T19:25:13.040Z,63.18
2022-09-28T19:27:42.508Z,63.34
2022-09-28T19:30:17.114Z,63.38
2022-09-28T19:32:47.841Z,63.33
2022-09-28T19:35:19.422Z,63.35
2022-09-28T19:37:52.044Z,63.53
2022-09-28T19:40:23.771Z,63.71
2022-09-28T19:42:53.428Z,63.55
2022-09-28T19:45:22.415Z,64.21
2022-09-28T19:47:59.222Z,64.18
2022-09-28T19:50:34.551Z,64.20
2022-09-28T19:53:07.120Z,64.43
2022-09-28T19:55:37.664Z,64.51
2022-09-28T19:58:09.169Z,64.57
2022-09-28T20:00:38.717Z,64.45
2022-09-28T20:03:09.787Z,64.74
2022-09-28T20:05:41.926Z,64.73
2022-09-28T20:08:12.668Z,64.97
2022-09-28T20:10:52.179Z,64.83
2022-09-28T20:13:24.937Z,65.10
2022-09-28T20:15:56.818Z,65.18
2022-09-28T20:19:19.581Z,65.09
2022-09-28T20:21:52.354Z,65.17
2022-09-28T20:24:21.240Z,65.10
2022-09-28T20:26:50.422Z,65.14
2022-09-28T20:29:22.229Z,65.24
2022-09-28T20:31:52.326Z,65.43
2022-09-28T20:34:24.916Z,65.59
2022-09-28T20:36:57.784Z,65.93
2022-09-28T20:39:27.808Z,66.26
2022-09-28T20:41:58.027Z,66.13
2022-09-28T20:44:27.754Z,66.30
2022-09-28T20:46:58.262Z,66.32
2022-09-28T20:49:29.542Z,66.42
2022-09-28T20:52:02.121Z,66.35
2022-09-28T20:54:31.412Z,66.45
2022-09-28T20:57:17.720Z,66.37
2022-09-28T20:59:52.303Z,66.43
2022-09-28T21:02:25.660Z,66.43
2022-09-28T21:04:57.137Z,66.47
2022-09-28T21:07:29.896Z,66.48
2022-09-28T21:10:00.031Z,66.58
2022-09-28T21:12:34.978Z,66.47
2022-09-28T21:15:09.773Z,66.16
2022-09-28T21:18:28.677Z,66.30
2022-09-28T21:21:01.265Z,66.62
2022-09-28T21:23:35.662Z,66.67
2022-09-28T21:26:08.522Z,66.63
2022-09-28T21:28:40.878Z,66.60
2022-09-28T21:31:14.476Z,66.72
2022-09-28T21:33:46.729Z,66.68
2022-09-28T21:36:17.785Z,66.86
2022-09-28T21:38:50.172Z,66.82
2022-09-28T21:41:19.918Z,66.96
2022-09-28T21:43:54.555Z,67.14
2022-09-28T21:46:25.997Z,67.10
2022-09-28T21:48:56.149Z,67.17
2022-09-28T21:51:25.289Z,67.28
2022-09-28T21:53:56.828Z,67.17
2022-09-28T21:56:28.425Z,67.15
2022-09-28T21:58:59.049Z,66.98
2022-09-28T22:01:29.947Z,67.17
2022-09-28T22:04:00.664Z,67.21
2022-09-28T22:06:31.274Z,67.22
2022-09-28T22:09:04.444Z,67.14
2022-09-28T22:11:33.756Z,67.25
2022-09-28T22:14:04.164Z,67.18
2022-09-28T22:16:37.478Z,67.18
2022-09-28T22:19:10.682Z,67.25
2022-09-28T22:21:42.029Z,67.24
2022-09-28T22:24:15.038Z,67.29
2022-09-28T22:26:46.459Z,67.28
2022-09-28T22:29:19.689Z,66.85
2022-09-28T22:32:00.605Z,66.90
2022-09-28T22:34:32.684Z,66.99
2022-09-28T22:37:05.911Z,66.86
2022-09-28T22:39:37.712Z,67.10
2022-09-28T22:42:10.785Z,67.43
2022-09-28T22:44:41.964Z,67.26
2022-09-28T22:47:12.629Z,67.63
2022-09-28T22:49:42.269Z,67.69
2022-09-28T22:52:12.462Z,67.88
2022-09-28T22:54:42.755Z,67.82
2022-09-28T22:57:13.191Z,67.64
2022-09-28T22:59:44.978Z,67.84
2022-09-28T23:02:16.194Z,67.87
2022-09-28T23:04:45.831Z,67.93
2022-09-28T23:07:17.606Z,67.95
2022-09-28T23:09:47.009Z,68.21
2022-09-28T23:12:17.313Z,68.14
2022-09-28T23:14:46.692Z,68.25
2022-09-28T23:21:44.169Z,68.39
2022-09-28T23:24:15.111Z,68.24
2022-09-28T23:26:46.847Z,68.28
2022-09-28T23:29:17.465Z,68.31
2022-09-28T23:31:48.551Z,68.30
2022-09-28T23:34:21.066Z,68.44
2022-09-28T23:37:30.905Z,68.48
2022-09-28T23:40:04.242Z,68.40
2022-09-28T23:42:37.407Z,68.36
2022-09-28T23:45:07.584Z,68.45
2022-09-28T23:47:40.444Z,68.50
2022-09-28T23:50:25.049Z,68.59
2022-09-28T23:52:55.277Z,68.68
2022-09-28T23:55:25.725Z,68.55
2022-09-28T23:57:58.095Z,68.57
